Time;durP1;ratioP1;P1;durP2;ratioP2;P2;SDS_P1;SDS_P2;PMS_P1;PMS_P2;Temp;Humidity;BMP_temperature;BMP_pressure;BME280_temperature;BME280_humidity;BME280_pressure;Samples;Min_cycle;Max_cycle;Signal;HPM_P1;HPM_P2
2023/07/20 00:01:09;;;;;;;3.60;2.50;;;16.30;99.90;;;;;;4991715;28;20468;-49
2023/07/20 00:03:35;;;;;;;2.95;2.38;;;16.30;99.90;;;;;;4994743;28;20037;-49
2023/07/20 00:06:01;;;;;;;3.97;2.53;;;16.20;99.90;;;;;;5006755;28;20041;-51
2023/07/20 00:08:27;;;;;;;4.40;2.38;;;16.30;99.90;;;;;;5007509;28;20041;-50
2023/07/20 00:10:52;;;;;;;3.85;2.58;;;16.20;99.90;;;;;;5009713;28;20061;-49
2023/07/20 00:13:19;;;;;;;3.17;2.40;;;16.20;99.90;;;;;;5006709;28;20839;-51
2023/07/20 00:15:44;;;;;;;2.70;2.40;;;16.10;99.90;;;;;;5006594;28;20443;-50
2023/07/20 00:18:10;;;;;;;3.90;2.58;;;16.10;99.90;;;;;;5002657;28;20041;-50
2023/07/20 00:20:36;;;;;;;3.50;2.40;;;16.10;99.90;;;;;;5008656;28;20044;-50
2023/07/20 00:23:02;;;;;;;2.80;2.03;;;16.10;99.90;;;;;;4990907;28;20050;-49
2023/07/20 00:25:27;;;;;;;4.63;2.20;;;16.10;99.90;;;;;;5007868;28;20069;-50
2023/07/20 00:27:53;;;;;;;2.47;2.25;;;16.00;99.90;;;;;;5009164;28;20084;-50
2023/07/20 00:30:19;;;;;;;2.40;2.20;;;16.00;99.90;;;;;;5008423;28;20045;-49
2023/07/20 00:32:45;;;;;;;2.60;2.40;;;16.00;99.90;;;;;;4967216;28;20056;-50
2023/07/20 00:35:11;;;;;;;4.60;2.50;;;16.00;99.90;;;;;;5007528;28;20064;-50
2023/07/20 00:37:37;;;;;;;3.17;2.50;;;16.00;99.90;;;;;;4997427;28;20063;-49
2023/07/20 00:40:07;;;;;;;3.63;2.30;;;16.00;99.90;;;;;;5007031;28;20037;-49
2023/07/20 00:42:33;;;;;;;3.80;2.50;;;15.90;99.90;;;;;;4993188;28;20056;-49
2023/07/20 00:45:00;;;;;;;2.47;2.28;;;15.90;99.90;;;;;;5010209;28;20041;-50
2023/07/20 00:47:27;;;;;;;3.53;2.60;;;15.80;99.90;;;;;;5011613;28;20136;-50
2023/07/20 00:49:53;;;;;;;3.20;2.60;;;15.80;99.90;;;;;;5011220;28;20033;-52
2023/07/20 00:52:21;;;;;;;3.28;2.70;;;15.80;99.90;;;;;;4997434;28;20581;-49
2023/07/20 00:54:48;;;;;;;3.00;2.70;;;15.70;99.90;;;;;;5017974;28;20381;-49
2023/07/20 00:57:18;;;;;;;4.00;2.60;;;15.60;99.90;;;;;;5014385;28;20409;-50
2023/07/20 00:59:44;;;;;;;4.25;2.83;;;15.60;99.90;;;;;;4993763;28;20056;-50
2023/07/20 01:02:10;;;;;;;4.72;2.95;;;15.60;99.90;;;;;;5014524;28;20416;-49
2023/07/20 01:04:37;;;;;;;3.33;2.80;;;15.50;99.90;;;;;;5014462;28;20030;-49
2023/07/20 01:07:27;;;;;;;7.40;3.10;;;15.40;99.90;;;;;;5001750;28;20139;-53
2023/07/20 01:10:10;;;;;;;4.32;2.90;;;15.40;99.90;;;;;;5011868;28;20048;-51
2023/07/20 01:12:47;;;;;;;2.92;2.70;;;15.40;99.90;;;;;;5014173;28;20057;-51
2023/07/20 01:15:13;;;;;;;3.95;2.78;;;15.30;99.90;;;;;;5014757;28;20047;-50
2023/07/20 01:17:39;;;;;;;3.38;2.85;;;15.30;99.90;;;;;;5013646;28;20084;-51
2023/07/20 01:20:12;;;;;;;3.10;2.85;;;15.30;99.90;;;;;;5011483;28;20037;-52
2023/07/20 01:22:59;;;;;;;5.45;2.97;;;15.30;99.90;;;;;;5009180;28;20095;-49
2023/07/20 01:25:47;;;;;;;3.17;2.72;;;15.20;99.90;;;;;;5012502;28;20465;-54
2023/07/20 01:28:44;;;;;;;4.03;3.03;;;15.20;99.90;;;;;;5010512;28;20045;-51
2023/07/20 01:31:25;;;;;;;4.63;3.33;;;15.10;99.90;;;;;;4997239;28;20040;-50
2023/07/20 01:33:55;;;;;;;5.38;2.97;;;15.00;99.90;;;;;;5012389;28;20053;-52
2023/07/20 01:36:24;;;;;;;5.35;3.17;;;15.00;99.90;;;;;;4996096;28;22482;-50
2023/07/20 01:38:51;;;;;;;4.50;2.72;;;14.90;99.90;;;;;;5000593;28;20132;-49
2023/07/20 01:41:17;;;;;;;3.65;2.70;;;14.90;99.90;;;;;;4997701;28;20041;-52
2023/07/20 01:43:44;;;;;;;5.13;3.08;;;14.80;99.90;;;;;;5010355;28;20148;-50
2023/07/20 01:46:10;;;;;;;3.40;3.05;;;14.80;99.90;;;;;;5011988;28;26460;-52
2023/07/20 01:48:35;;;;;;;4.85;3.10;;;14.80;99.90;;;;;;4993641;28;20077;-51
2023/07/20 01:51:01;;;;;;;4.35;2.92;;;14.70;99.90;;;;;;5012419;28;20037;-51
2023/07/20 01:53:27;;;;;;;3.90;3.30;;;14.70;99.90;;;;;;5005259;28;20059;-50
2023/07/20 01:55:56;;;;;;;3.10;2.90;;;14.70;99.90;;;;;;5010460;28;20052;-50
2023/07/20 01:58:22;;;;;;;3.35;3.05;;;14.60;99.90;;;;;;5012233;28;20050;-52
2023/07/20 02:00:48;;;;;;;3.50;3.15;;;14.60;99.90;;;;;;5009221;28;20049;-49
2023/07/20 02:03:14;;;;;;;3.00;2.70;;;14.50;99.90;;;;;;4993790;28;20068;-51
2023/07/20 02:05:42;;;;;;;3.25;2.60;;;14.50;99.90;;;;;;5009126;28;20041;-50
2023/07/20 02:08:08;;;;;;;2.63;2.42;;;14.40;99.90;;;;;;5011114;28;20029;-51
2023/07/20 02:10:34;;;;;;;3.15;2.85;;;14.40;99.90;;;;;;5011432;28;22369;-50
2023/07/20 02:13:00;;;;;;;4.63;3.42;;;14.40;99.90;;;;;;5010528;28;20060;-50
2023/07/20 02:15:27;;;;;;;3.40;2.90;;;14.30;99.90;;;;;;5007307;28;20056;-50
2023/07/20 02:17:53;;;;;;;4.18;3.08;;;14.30;99.90;;;;;;5006697;28;20053;-53
2023/07/20 02:20:19;;;;;;;4.65;2.70;;;14.30;99.90;;;;;;5010911;28;20048;-52
2023/07/20 02:22:45;;;;;;;5.90;2.90;;;14.20;99.90;;;;;;4996766;28;20057;-50
2023/07/20 02:25:11;;;;;;;4.13;2.78;;;14.20;99.90;;;;;;5008556;28;20049;-49
2023/07/20 02:27:38;;;;;;;6.45;3.13;;;14.20;99.90;;;;;;5010192;28;20037;-53
2023/07/20 02:30:05;;;;;;;6.65;2.88;;;14.10;99.90;;;;;;4993345;28;21035;-49
2023/07/20 02:32:31;;;;;;;3.65;2.80;;;14.10;99.90;;;;;;5006950;28;20057;-50
2023/07/20 02:34:58;;;;;;;3.10;2.80;;;14.00;99.90;;;;;;5009248;28;21023;-50
2023/07/20 02:37:24;;;;;;;4.07;2.90;;;14.00;99.90;;;;;;5013174;28;20045;-50
2023/07/20 02:39:50;;;;;;;2.75;2.55;;;14.00;99.90;;;;;;5011709;28;20053;-54
2023/07/20 02:42:15;;;;;;;3.15;2.85;;;13.90;99.90;;;;;;5000873;28;20439;-50
2023/07/20 02:44:41;;;;;;;4.43;2.72;;;13.90;99.90;;;;;;5001501;28;20114;-50
2023/07/20 02:47:07;;;;;;;5.28;2.65;;;13.90;99.90;;;;;;5010442;28;20041;-53
2023/07/20 02:49:33;;;;;;;7.55;2.80;;;13.80;99.90;;;;;;5013268;28;20535;-52
2023/07/20 02:51:58;;;;;;;5.53;2.88;;;13.80;99.90;;;;;;5010255;28;20045;-53
2023/07/20 02:54:24;;;;;;;3.50;2.97;;;13.70;99.90;;;;;;4991718;28;20132;-53
2023/07/20 02:56:50;;;;;;;2.85;2.65;;;13.70;99.90;;;;;;5007213;28;20550;-50
2023/07/20 02:59:15;;;;;;;2.65;2.45;;;13.70;99.90;;;;;;5009305;28;20049;-53
2023/07/20 03:01:44;;;;;;;4.90;2.72;;;13.60;99.90;;;;;;5007395;28;20046;-52
2023/07/20 03:04:10;;;;;;;3.20;2.90;;;13.60;99.90;;;;;;5008208;28;20049;-50
2023/07/20 03:06:36;;;;;;;3.85;2.92;;;13.60;99.90;;;;;;4972562;28;20041;-51
2023/07/20 03:09:03;;;;;;;3.20;2.78;;;13.50;99.90;;;;;;4992202;28;20385;-53
2023/07/20 03:11:29;;;;;;;3.80;2.72;;;13.50;99.90;;;;;;4992093;28;20891;-50
2023/07/20 03:13:55;;;;;;;5.07;3.53;;;13.50;99.90;;;;;;5009165;28;20175;-52
2023/07/20 03:16:24;;;;;;;5.38;3.38;;;13.40;99.90;;;;;;4992776;28;20592;-50
2023/07/20 03:18:51;;;;;;;5.30;3.20;;;13.30;99.90;;;;;;4990607;28;20054;-51
2023/07/20 03:21:16;;;;;;;5.53;3.30;;;13.30;99.90;;;;;;5006992;28;20045;-52
2023/07/20 03:23:42;;;;;;;5.78;3.35;;;13.30;99.90;;;;;;5009911;28;20045;-51
2023/07/20 03:26:08;;;;;;;4.13;2.90;;;13.20;99.90;;;;;;5008719;28;20069;-52
2023/07/20 03:28:38;;;;;;;3.28;2.70;;;13.20;99.90;;;;;;4992706;28;20045;-51
2023/07/20 03:31:04;;;;;;;5.28;3.50;;;13.10;99.90;;;;;;5009526;28;20419;-51
2023/07/20 03:33:31;;;;;;;3.88;3.28;;;13.10;99.90;;;;;;5009784;28;20041;-53
2023/07/20 03:35:58;;;;;;;5.25;3.13;;;13.10;99.90;;;;;;5010809;28;20647;-49
2023/07/20 03:38:24;;;;;;;4.45;2.88;;;13.10;99.90;;;;;;4991899;28;20053;-51
2023/07/20 03:40:56;;;;;;;2.92;2.50;;;13.10;99.90;;;;;;4994594;28;20041;-52
2023/07/20 03:43:22;;;;;;;3.63;2.80;;;13.10;99.90;;;;;;5009445;28;20046;-51
2023/07/20 03:45:49;;;;;;;18.63;3.00;;;13.00;99.90;;;;;;4998558;28;20083;-49
2023/07/20 03:48:24;;;;;;;7.93;2.65;;;13.00;99.90;;;;;;5008286;28;20539;-51
2023/07/20 03:50:51;;;;;;;4.57;2.72;;;13.00;99.90;;;;;;5000842;28;20041;-52
2023/07/20 03:53:18;;;;;;;2.88;2.50;;;12.90;99.90;;;;;;5008792;28;20055;-51
2023/07/20 03:55:51;;;;;;;2.90;2.60;;;12.90;99.90;;;;;;5010910;28;20400;-50
2023/07/20 03:58:17;;;;;;;3.60;3.25;;;12.90;99.90;;;;;;5003042;28;20601;-50
2023/07/20 04:00:45;;;;;;;6.60;2.97;;;13.00;99.90;;;;;;5004495;28;20120;-51
2023/07/20 04:03:11;;;;;;;2.90;2.63;;;13.00;99.90;;;;;;5007247;28;20538;-51
2023/07/20 04:05:37;;;;;;;3.10;2.78;;;13.00;99.90;;;;;;4988762;28;20045;-52
2023/07/20 04:08:02;;;;;;;3.53;2.80;;;13.00;99.90;;;;;;4989744;28;20680;-54
2023/07/20 04:10:28;;;;;;;3.28;2.88;;;13.00;99.90;;;;;;5006281;28;20048;-51
2023/07/20 04:12:54;;;;;;;3.20;2.90;;;13.00;99.90;;;;;;4990068;28;20500;-54
2023/07/20 04:15:19;;;;;;;5.00;3.15;;;13.00;99.90;;;;;;5006443;28;20045;-53
2023/07/20 04:17:45;;;;;;;4.65;2.88;;;13.00;99.90;;;;;;5008571;28;20041;-52
2023/07/20 04:20:11;;;;;;;2.70;2.35;;;13.00;99.90;;;;;;5006885;28;20041;-52
2023/07/20 04:22:37;;;;;;;3.65;2.47;;;13.00;99.90;;;;;;5008124;28;20114;-49
2023/07/20 04:25:04;;;;;;;4.78;2.92;;;13.00;99.90;;;;;;5006869;28;20045;-53
2023/07/20 04:27:30;;;;;;;2.70;2.50;;;13.00;99.90;;;;;;5007368;28;20043;-52
2023/07/20 04:29:57;;;;;;;3.83;2.60;;;13.00;99.90;;;;;;5002814;28;20029;-50
2023/07/20 04:32:23;;;;;;;3.20;2.60;;;13.00;99.90;;;;;;5005315;28;20048;-50
2023/07/20 04:34:49;;;;;;;4.80;2.40;;;13.00;99.90;;;;;;5010562;28;20408;-50
2023/07/20 04:37:15;;;;;;;4.22;2.83;;;13.00;99.90;;;;;;5006860;28;20057;-53
2023/07/20 04:39:40;;;;;;;2.60;2.40;;;13.00;99.90;;;;;;4976352;28;20496;-52
2023/07/20 04:42:06;;;;;;;3.33;2.35;;;13.10;99.90;;;;;;5008718;28;20049;-50
2023/07/20 04:44:32;;;;;;;3.22;2.53;;;13.10;99.90;;;;;;4991126;28;20684;-49
2023/07/20 04:46:58;;;;;;;3.38;2.55;;;13.20;99.90;;;;;;5008257;28;20039;-52
2023/07/20 04:49:23;;;;;;;4.65;2.70;;;13.20;99.90;;;;;;5008154;28;20072;-51
2023/07/20 04:51:49;;;;;;;5.85;2.53;;;13.30;99.90;;;;;;4992077;28;20531;-49
2023/07/20 04:54:16;;;;;;;3.70;2.40;;;13.40;99.90;;;;;;4987120;28;20053;-51
2023/07/20 04:56:42;;;;;;;3.90;2.72;;;13.40;99.90;;;;;;5009897;28;20053;-51
2023/07/20 04:59:08;;;;;;;6.82;2.55;;;13.60;99.90;;;;;;5010832;28;20048;-53
2023/07/20 05:01:34;;;;;;;3.85;2.60;;;13.60;99.90;;;;;;4981215;28;20061;-51
2023/07/20 05:03:59;;;;;;;4.25;2.70;;;13.70;99.90;;;;;;4993213;28;20057;-49
2023/07/20 05:06:25;;;;;;;3.72;2.85;;;13.70;99.90;;;;;;4989888;28;20102;-50
2023/07/20 05:08:51;;;;;;;3.85;2.55;;;13.70;99.90;;;;;;5009915;28;20064;-53
2023/07/20 05:11:17;;;;;;;6.35;3.30;;;13.80;99.90;;;;;;5009039;28;20136;-50
2023/07/20 05:13:42;;;;;;;3.10;2.80;;;13.80;99.90;;;;;;5009421;28;20049;-52
2023/07/20 05:16:08;;;;;;;4.97;2.92;;;13.90;99.90;;;;;;5006463;28;20034;-52
2023/07/20 05:18:34;;;;;;;5.00;2.65;;;13.90;99.90;;;;;;5001340;28;20960;-52
2023/07/20 05:20:59;;;;;;;4.00;2.80;;;14.00;99.90;;;;;;5006284;28;20517;-52
2023/07/20 05:23:26;;;;;;;6.03;2.60;;;14.10;99.90;;;;;;4991775;28;20564;-52
2023/07/20 05:25:59;;;;;;;4.75;2.60;;;14.10;99.90;;;;;;5007150;28;20057;-54
2023/07/20 05:28:26;;;;;;;6.47;2.65;;;14.20;99.90;;;;;;5009637;28;20042;-50
2023/07/20 05:30:52;;;;;;;2.90;2.70;;;14.20;99.90;;;;;;5005383;28;20441;-54
2023/07/20 05:33:21;;;;;;;4.05;2.63;;;14.30;99.90;;;;;;5000923;28;20045;-53
2023/07/20 05:35:47;;;;;;;6.78;2.60;;;14.40;99.90;;;;;;4988139;28;20222;-49
2023/07/20 05:38:13;;;;;;;5.20;2.17;;;14.40;99.90;;;;;;5009219;28;20048;-49
2023/07/20 05:40:41;;;;;;;6.70;2.20;;;14.40;99.90;;;;;;4994498;28;20077;-53
2023/07/20 05:43:07;;;;;;;8.07;2.10;;;14.50;99.90;;;;;;5012972;28;20056;-52
2023/07/20 05:45:33;;;;;;;3.85;1.90;;;14.50;99.90;;;;;;5010873;28;20042;-49
2023/07/20 05:47:58;;;;;;;3.50;1.90;;;14.60;99.90;;;;;;4993624;28;20052;-53
2023/07/20 05:50:24;;;;;;;7.03;2.10;;;14.60;99.90;;;;;;4992508;28;20523;-52
2023/07/20 05:52:52;;;;;;;6.28;1.85;;;14.70;99.90;;;;;;5010197;28;20053;-48
2023/07/20 05:55:19;;;;;;;6.70;1.80;;;14.70;99.90;;;;;;5009339;28;20042;-51
2023/07/20 05:57:45;;;;;;;5.38;1.90;;;14.80;99.90;;;;;;5007274;28;20049;-54
2023/07/20 06:00:12;;;;;;;4.15;1.77;;;14.80;99.90;;;;;;5006940;28;20615;-50
2023/07/20 06:02:39;;;;;;;6.18;2.03;;;14.90;99.90;;;;;;4995771;28;20104;-52
2023/07/20 06:05:09;;;;;;;3.03;1.67;;;14.90;99.90;;;;;;5010296;28;20503;-50
2023/07/20 06:07:36;;;;;;;4.00;1.67;;;15.00;99.90;;;;;;5004565;28;20049;-52
2023/07/20 06:10:02;;;;;;;3.67;1.85;;;15.10;99.90;;;;;;4994454;28;20054;-50
2023/07/20 06:12:28;;;;;;;5.68;1.73;;;15.10;99.90;;;;;;5004895;28;20052;-53
2023/07/20 06:14:54;;;;;;;9.10;1.73;;;15.20;99.90;;;;;;5001070;28;20496;-49
2023/07/20 06:17:20;;;;;;;4.93;1.40;;;15.30;99.90;;;;;;5015400;28;20099;-49
2023/07/20 06:19:45;;;;;;;2.85;1.60;;;15.30;99.90;;;;;;5018534;28;20475;-53
2023/07/20 06:22:11;;;;;;;5.47;1.70;;;15.40;99.90;;;;;;5016262;28;20116;-52
2023/07/20 06:24:37;;;;;;;6.38;1.50;;;15.40;99.90;;;;;;5017193;28;20042;-49
2023/07/20 06:27:03;;;;;;;3.80;1.25;;;15.50;99.90;;;;;;4997330;28;20041;-51
2023/07/20 06:29:28;;;;;;;5.47;1.85;;;15.60;99.90;;;;;;4997500;28;20295;-52
2023/07/20 06:31:54;;;;;;;4.18;1.52;;;15.70;99.90;;;;;;4991590;28;20065;-50
2023/07/20 06:34:20;;;;;;;4.07;1.30;;;15.70;99.90;;;;;;5015252;28;20053;-51
2023/07/20 06:36:46;;;;;;;4.30;1.45;;;15.80;99.90;;;;;;5014617;28;20050;-50
2023/07/20 06:39:14;;;;;;;10.75;2.05;;;15.90;99.90;;;;;;5013950;28;20108;-50
2023/07/20 06:41:39;;;;;;;4.68;1.65;;;16.00;99.90;;;;;;5016141;28;20052;-49
2023/07/20 06:44:05;;;;;;;5.20;1.40;;;16.10;99.90;;;;;;5013830;28;20410;-50
2023/07/20 06:46:31;;;;;;;4.13;1.45;;;16.20;99.90;;;;;;4996112;28;20046;-48
2023/07/20 06:48:57;;;;;;;3.85;1.60;;;16.20;99.90;;;;;;5017644;28;20127;-50
2023/07/20 06:51:22;;;;;;;5.35;1.50;;;16.40;99.90;;;;;;5014720;28;20034;-51
2023/07/20 06:53:48;;;;;;;4.25;1.90;;;16.50;99.90;;;;;;5011903;28;20128;-50
2023/07/20 06:56:14;;;;;;;3.90;1.73;;;16.70;99.90;;;;;;5010768;28;20049;-49
2023/07/20 06:58:40;;;;;;;2.80;1.40;;;16.80;99.90;;;;;;5004327;28;20033;-49
2023/07/20 07:01:09;;;;;;;6.97;1.98;;;16.90;99.90;;;;;;5005589;28;20401;-49
2023/07/20 07:03:35;;;;;;;6.25;1.95;;;16.90;99.90;;;;;;5013227;28;20099;-49
2023/07/20 07:06:00;;;;;;;4.95;1.88;;;16.80;99.90;;;;;;5015462;28;20488;-51
2023/07/20 07:08:26;;;;;;;4.63;1.90;;;16.80;99.90;;;;;;5013844;28;20040;-52
2023/07/20 07:10:52;;;;;;;5.32;2.00;;;16.70;99.90;;;;;;5017389;28;20042;-50
2023/07/20 07:13:19;;;;;;;4.53;2.28;;;16.60;99.90;;;;;;5011675;28;20536;-51
2023/07/20 07:15:45;;;;;;;5.40;2.00;;;16.60;99.90;;;;;;5012072;28;20172;-53
2023/07/20 07:18:11;;;;;;;4.18;1.90;;;16.70;99.90;;;;;;5014759;28;20118;-51
2023/07/20 07:20:37;;;;;;;4.68;1.70;;;16.90;99.90;;;;;;5015689;28;20041;-50
2023/07/20 07:23:02;;;;;;;6.50;2.33;;;17.00;99.90;;;;;;5016928;28;20681;-52
2023/07/20 07:25:28;;;;;;;7.88;2.42;;;17.20;99.90;;;;;;5016352;28;20045;-52
2023/07/20 07:27:55;;;;;;;4.88;2.20;;;17.40;99.90;;;;;;5010023;28;20438;-51
2023/07/20 07:30:21;;;;;;;10.95;2.30;;;17.40;99.90;;;;;;4990196;28;20041;-49
2023/07/20 07:32:47;;;;;;;7.68;2.13;;;17.40;99.90;;;;;;5010711;28;20524;-51
2023/07/20 07:35:13;;;;;;;7.82;2.65;;;17.30;99.90;;;;;;5015181;28;20113;-51
2023/07/20 07:37:39;;;;;;;11.85;2.78;;;17.30;99.90;;;;;;5014649;28;20109;-49
2023/07/20 07:40:06;;;;;;;7.43;2.45;;;17.30;99.90;;;;;;5014764;28;20033;-50
2023/07/20 07:42:32;;;;;;;5.30;2.17;;;17.30;99.90;;;;;;5014211;28;20057;-52
2023/07/20 07:44:57;;;;;;;10.73;1.98;;;17.50;99.90;;;;;;5015453;28;20045;-49
2023/07/20 07:47:23;;;;;;;4.57;2.00;;;17.70;99.90;;;;;;5015414;28;20494;-49
2023/07/20 07:49:49;;;;;;;8.90;1.65;;;17.80;99.90;;;;;;5016527;28;20040;-49
2023/07/20 07:52:15;;;;;;;9.30;2.10;;;17.90;99.90;;;;;;4991007;28;20610;-51
2023/07/20 07:54:41;;;;;;;5.95;1.70;;;17.90;99.90;;;;;;4993837;28;20042;-51
2023/07/20 07:57:07;;;;;;;4.85;1.75;;;17.90;99.90;;;;;;4994827;28;20050;-50
2023/07/20 07:59:36;;;;;;;7.25;1.80;;;17.90;99.90;;;;;;5013406;28;20498;-50
2023/07/20 08:02:04;;;;;;;9.07;1.70;;;17.90;99.90;;;;;;5013922;28;20488;-50
2023/07/20 08:04:30;;;;;;;3.40;1.60;;;18.00;99.90;;;;;;5015713;28;20049;-49
2023/07/20 08:06:56;;;;;;;4.55;1.38;;;17.90;99.90;;;;;;4999538;28;20582;-50
2023/07/20 08:09:22;;;;;;;2.85;1.40;;;17.80;99.90;;;;;;4993982;28;20037;-50
2023/07/20 08:11:48;;;;;;;5.25;1.58;;;17.80;99.90;;;;;;5014143;28;20060;-50
2023/07/20 08:14:15;;;;;;;7.18;1.65;;;17.70;99.90;;;;;;4994446;28;20045;-49
2023/07/20 08:16:40;;;;;;;3.53;1.30;;;17.80;99.90;;;;;;5011113;28;20052;-51
2023/07/20 08:19:06;;;;;;;5.22;1.20;;;18.00;99.90;;;;;;4986763;28;20839;-49
2023/07/20 08:21:32;;;;;;;3.83;1.17;;;18.20;99.90;;;;;;4998185;28;20381;-49
2023/07/20 08:23:57;;;;;;;4.10;1.10;;;18.40;99.90;;;;;;5011672;28;20042;-51
2023/07/20 08:26:23;;;;;;;4.18;1.60;;;18.60;99.90;;;;;;5010036;28;20089;-52
2023/07/20 08:28:49;;;;;;;1.58;1.00;;;18.80;99.90;;;;;;5010796;28;20096;-52
2023/07/20 08:31:15;;;;;;;3.95;0.95;;;18.90;99.90;;;;;;5010481;28;20477;-49
2023/07/20 08:33:41;;;;;;;2.70;0.95;;;19.10;99.90;;;;;;5007623;28;20603;-51
2023/07/20 08:36:07;;;;;;;3.13;1.00;;;19.30;99.10;;;;;;5009526;28;20617;-53
2023/07/20 08:38:33;;;;;;;4.68;1.00;;;19.40;98.70;;;;;;5011893;28;20056;-51
2023/07/20 08:40:59;;;;;;;6.80;1.13;;;19.50;98.60;;;;;;5013757;28;20057;-52
2023/07/20 08:43:27;;;;;;;4.10;0.90;;;19.60;98.50;;;;;;4992599;28;20056;-49
2023/07/20 08:45:58;;;;;;;3.08;1.17;;;19.70;98.00;;;;;;5010025;28;20033;-50
2023/07/20 08:48:24;;;;;;;2.83;0.85;;;19.70;97.40;;;;;;5009636;28;20055;-51
2023/07/20 08:50:55;;;;;;;4.00;1.10;;;19.60;96.90;;;;;;5010268;28;20045;-52
2023/07/20 08:53:21;;;;;;;3.30;1.00;;;19.60;96.60;;;;;;5011391;28;20049;-50
2023/07/20 08:55:51;;;;;;;4.20;1.00;;;19.70;96.50;;;;;;5010995;28;20037;-51
2023/07/20 08:58:17;;;;;;;2.33;0.80;;;19.90;96.70;;;;;;5007670;28;20046;-52
2023/07/20 09:00:44;;;;;;;2.83;0.90;;;20.10;96.20;;;;;;5008183;28;20045;-52
2023/07/20 09:03:11;;;;;;;4.78;1.10;;;20.20;95.40;;;;;;5009398;28;20054;-52
2023/07/20 09:05:36;;;;;;;3.72;1.10;;;20.10;95.00;;;;;;4995499;28;20037;-49
2023/07/20 09:08:05;;;;;;;2.38;1.00;;;20.10;94.80;;;;;;5013755;28;20096;-52
2023/07/20 09:10:31;;;;;;;2.72;1.00;;;20.20;94.70;;;;;;5012193;28;20046;-51
2023/07/20 09:12:57;;;;;;;2.83;0.88;;;20.30;94.80;;;;;;5013503;28;20050;-50
2023/07/20 09:15:23;;;;;;;3.58;0.90;;;20.30;94.60;;;;;;5011800;28;20038;-49
2023/07/20 09:17:53;;;;;;;2.15;0.90;;;20.20;94.20;;;;;;5013875;28;20396;-49
2023/07/20 09:20:20;;;;;;;6.50;1.08;;;20.00;93.90;;;;;;4984553;28;20054;-49
2023/07/20 09:22:46;;;;;;;3.47;0.80;;;19.80;94.00;;;;;;5013524;28;20073;-49
2023/07/20 09:25:16;;;;;;;1.33;0.65;;;19.90;94.00;;;;;;5012347;28;20037;-49
2023/07/20 09:27:45;;;;;;;3.97;0.88;;;20.10;93.30;;;;;;4997245;28;20048;-51
2023/07/20 09:30:13;;;;;;;3.45;1.10;;;20.30;92.90;;;;;;5004587;28;20103;-49
2023/07/20 09:32:47;;;;;;;3.60;0.95;;;20.60;92.70;;;;;;5012704;28;20056;-49
2023/07/20 09:35:20;;;;;;;3.65;1.10;;;20.90;93.30;;;;;;5011246;28;20041;-53
2023/07/20 09:37:52;;;;;;;3.95;1.00;;;21.20;92.70;;;;;;5012602;28;20057;-53
2023/07/20 09:40:18;;;;;;;5.40;1.02;;;21.40;92.60;;;;;;5013048;28;20111;-51
2023/07/20 09:42:44;;;;;;;3.08;0.90;;;21.30;92.40;;;;;;5013685;28;20048;-51
2023/07/20 09:45:11;;;;;;;3.17;0.90;;;21.10;92.50;;;;;;5013734;28;20041;-50
2023/07/20 09:47:38;;;;;;;3.65;0.90;;;20.90;92.30;;;;;;5013590;28;20477;-53
2023/07/20 09:50:04;;;;;;;2.83;1.00;;;20.90;92.00;;;;;;5013374;28;20050;-51
2023/07/20 09:52:31;;;;;;;2.45;0.80;;;21.10;91.80;;;;;;5013876;28;20048;-53
2023/07/20 09:54:58;;;;;;;1.33;0.80;;;21.30;91.30;;;;;;5001164;28;20037;-51
2023/07/20 09:57:26;;;;;;;1.73;0.80;;;21.60;91.10;;;;;;4989725;28;20049;-49
2023/07/20 09:59:51;;;;;;;5.57;1.02;;;21.80;90.30;;;;;;5018953;28;20047;-51
2023/07/20 10:02:24;;;;;;;4.55;1.20;;;22.00;90.30;;;;;;4998488;28;20038;-52
2023/07/20 10:04:53;;;;;;;1.55;1.00;;;22.10;89.50;;;;;;4999924;28;20578;-53
2023/07/20 10:07:22;;;;;;;2.33;0.80;;;22.20;87.30;;;;;;5015883;28;20501;-49
2023/07/20 10:09:51;;;;;;;1.17;0.80;;;22.40;87.20;;;;;;5016074;28;20554;-49
2023/07/20 10:12:21;;;;;;;2.33;0.90;;;22.50;87.10;;;;;;5016444;28;20125;-51
2023/07/20 10:15:00;;;;;;;3.70;1.23;;;22.80;85.30;;;;;;5013784;28;20042;-48
2023/07/20 10:17:26;;;;;;;1.50;0.70;;;22.90;85.40;;;;;;5015321;28;20061;-51
2023/07/20 10:19:56;;;;;;;3.53;1.10;;;22.80;83.20;;;;;;5014634;28;20092;-48
2023/07/20 10:22:33;;;;;;;2.10;1.00;;;22.60;82.90;;;;;;5017174;28;20504;-49
2023/07/20 10:24:59;;;;;;;1.40;0.85;;;22.60;82.80;;;;;;5016024;28;20037;-51
2023/07/20 10:27:25;;;;;;;3.08;0.85;;;22.60;82.10;;;;;;5016388;28;20041;-48
2023/07/20 10:29:53;;;;;;;3.85;1.17;;;22.80;82.90;;;;;;5019132;28;20103;-52
2023/07/20 10:32:20;;;;;;;1.23;0.80;;;23.00;80.90;;;;;;5015701;28;20095;-49
2023/07/20 10:34:52;;;;;;;2.00;0.93;;;23.10;80.40;;;;;;5016200;28;20046;-51
2023/07/20 10:37:46;;;;;;;2.83;1.08;;;23.00;79.70;;;;;;5014382;28;20092;-51
2023/07/20 10:40:37;;;;;;;2.35;0.90;;;23.10;80.70;;;;;;5014007;28;20111;-49
2023/07/20 10:43:07;;;;;;;2.10;0.90;;;23.40;80.10;;;;;;5013999;28;20200;-48
2023/07/20 10:45:37;;;;;;;2.92;0.90;;;23.70;78.30;;;;;;5005642;28;20037;-49
2023/07/20 10:48:12;;;;;;;2.60;0.80;;;23.90;77.20;;;;;;5014784;28;20044;-49
2023/07/20 10:50:40;;;;;;;2.78;1.15;;;23.70;75.70;;;;;;5018803;28;20037;-47
2023/07/20 10:53:14;;;;;;;3.33;1.00;;;23.70;75.30;;;;;;5016745;28;20137;-47
2023/07/20 10:55:40;;;;;;;2.13;0.77;;;23.70;75.60;;;;;;5017029;28;20049;-51
2023/07/20 10:58:09;;;;;;;3.03;1.00;;;23.90;76.00;;;;;;4998048;28;20553;-47
2023/07/20 11:00:34;;;;;;;1.95;0.80;;;23.90;74.10;;;;;;5016936;28;20041;-50
2023/07/20 11:03:00;;;;;;;1.55;0.85;;;23.90;73.90;;;;;;4993892;28;20052;-48
2023/07/20 11:05:36;;;;;;;1.80;0.80;;;23.70;73.60;;;;;;5018613;28;20034;-53
2023/07/20 11:08:09;;;;;;;2.25;0.80;;;23.40;74.30;;;;;;5018324;28;20829;-55
2023/07/20 11:10:35;;;;;;;1.95;0.85;;;23.40;74.20;;;;;;5017818;28;20040;-55
2023/07/20 11:13:18;;;;;;;2.65;0.90;;;23.60;75.30;;;;;;5000330;28;20393;-55
2023/07/20 11:15:56;;;;;;;1.95;0.90;;;23.80;74.10;;;;;;5017556;28;20041;-54
2023/07/20 11:18:26;;;;;;;2.33;1.00;;;23.90;73.40;;;;;;5016612;28;20037;-56
2023/07/20 11:20:53;;;;;;;3.05;0.90;;;24.10;72.80;;;;;;5019583;28;20164;-54
2023/07/20 11:23:20;;;;;;;3.63;1.10;;;24.30;71.70;;;;;;5020045;28;20089;-56
2023/07/20 11:25:46;;;;;;;2.45;0.80;;;24.30;71.00;;;;;;5017902;28;20127;-56
2023/07/20 11:28:12;;;;;;;4.00;0.90;;;24.50;71.90;;;;;;5017533;28;20069;-50
2023/07/20 11:30:38;;;;;;;1.45;0.80;;;24.60;71.50;;;;;;5017703;28;20157;-56
2023/07/20 11:33:05;;;;;;;3.53;1.02;;;24.80;70.50;;;;;;5018856;28;20046;-55
2023/07/20 11:35:35;;;;;;;2.83;0.90;;;24.60;69.70;;;;;;5019290;28;20124;-55
2023/07/20 11:38:00;;;;;;;6.13;1.20;;;24.50;69.40;;;;;;5018539;28;20065;-54
2023/07/20 11:40:26;;;;;;;2.15;0.93;;;24.60;69.30;;;;;;5017972;28;20134;-56
2023/07/20 11:42:53;;;;;;;2.60;0.85;;;24.80;71.00;;;;;;5017024;28;20037;-55
2023/07/20 11:45:20;;;;;;;1.77;1.00;;;24.80;70.10;;;;;;4985886;28;20042;-55
2023/07/20 11:47:45;;;;;;;1.83;0.90;;;24.70;68.40;;;;;;5019209;28;20037;-55
2023/07/20 11:50:13;;;;;;;1.48;0.70;;;24.80;68.40;;;;;;5019441;28;20045;-56
2023/07/20 11:52:40;;;;;;;5.65;0.98;;;24.80;68.50;;;;;;5016522;28;20141;-54
2023/07/20 11:55:07;;;;;;;2.08;0.95;;;24.70;68.60;;;;;;5017528;28;20049;-56
2023/07/20 11:57:33;;;;;;;2.35;0.80;;;24.60;67.80;;;;;;5017123;28;20522;-56
2023/07/20 12:00:08;;;;;;;3.05;0.82;;;24.30;67.70;;;;;;5017609;28;20045;-56
2023/07/20 12:02:34;;;;;;;1.60;0.80;;;24.10;67.90;;;;;;5017315;28;20052;-53
2023/07/20 12:05:02;;;;;;;1.73;0.70;;;23.90;68.40;;;;;;5016946;28;20061;-55
2023/07/20 12:07:28;;;;;;;2.70;0.93;;;23.80;68.80;;;;;;5016058;28;20045;-56
2023/07/20 12:10:25;;;;;;;2.03;0.80;;;23.70;68.80;;;;;;5017456;28;20060;-56
2023/07/20 12:12:50;;;;;;;2.25;0.80;;;23.80;68.60;;;;;;4997257;28;20060;-54
2023/07/20 12:15:26;;;;;;;1.95;0.80;;;23.70;69.10;;;;;;5008092;28;20049;-57
2023/07/20 12:17:56;;;;;;;2.28;0.68;;;23.70;68.80;;;;;;5011332;28;20046;-57
2023/07/20 12:20:36;;;;;;;1.48;0.80;;;23.70;68.70;;;;;;5012743;28;20045;-57
2023/07/20 12:23:10;;;;;;;2.85;0.88;;;23.60;67.40;;;;;;5009736;28;20171;-55
2023/07/20 12:25:46;;;;;;;3.63;0.90;;;23.40;68.00;;;;;;5004003;28;20045;-54
2023/07/20 12:28:17;;;;;;;1.63;0.70;;;23.10;69.00;;;;;;5005758;28;20068;-56
2023/07/20 12:30:44;;;;;;;1.88;0.68;;;22.90;69.00;;;;;;5010499;28;20048;-58
2023/07/20 12:33:11;;;;;;;2.67;0.80;;;22.70;69.80;;;;;;5006764;28;20876;-58
2023/07/20 12:35:37;;;;;;;3.33;0.70;;;22.50;70.50;;;;;;4992642;28;20045;-58
2023/07/20 12:38:03;;;;;;;1.35;0.75;;;22.40;70.70;;;;;;5007754;28;20573;-58
2023/07/20 12:40:29;;;;;;;1.88;0.70;;;22.20;70.90;;;;;;5016134;28;20125;-59
2023/07/20 12:42:55;;;;;;;3.75;0.88;;;22.10;71.20;;;;;;5016998;28;20038;-58
2023/07/20 12:45:22;;;;;;;4.35;0.90;;;22.00;73.00;;;;;;5016871;28;20592;-59
2023/07/20 12:47:48;;;;;;;3.58;1.02;;;22.00;74.20;;;;;;4997097;28;20038;-54